This London Heathrow Airport weather forecast is generated by the Met Office Weather Widget

AirNav RadarBox - Metar Weather
  London Heathrow Metar Weather
 

METAR = EGLL 021620Z 18007KT 150V230 9999 FEW030 20/13 Q1027 NOSIG

STATION........ EGLL
OBSERVED....... Thu Oct 2, 17:20 BST
NOW............ Thu Oct 2, 17:28 BST
AGE............ 8 min ago
WIND........... S at 8 mph
VISIBILITY..... 16 miles
CLOUDS......... partly cloudy
TEMP........... 68°F (20°C)
DEWPT.......... 55°F (13°C)
HUMIDITY....... 64%
BAROMETER...... 1027 hPa (30.33 in Hg)

Thu Oct 02 2014, sunrise time : 06:08
Thu Oct 02 2014, sunset time : 17:33